sensor_id;sensor_type;location;lat;lon;timestamp;P1;durP1;ratioP1;P2;durP2;ratioP2
59193;SDS011;44967;48.598;15.650;2023-07-02T00:01:09;6.30;;;3.95;;
59193;SDS011;44967;48.598;15.650;2023-07-02T00:03:37;5.60;;;4.03;;
59193;SDS011;44967;48.598;15.650;2023-07-02T00:06:03;5.53;;;4.10;;
59193;SDS011;44967;48.598;15.650;2023-07-02T00:08:28;4.50;;;4.00;;
59193;SDS011;44967;48.598;15.650;2023-07-02T00:10:54;5.78;;;4.22;;
59193;SDS011;44967;48.598;15.650;2023-07-02T00:13:20;4.78;;;3.60;;
59193;SDS011;44967;48.598;15.650;2023-07-02T00:15:45;4.18;;;3.35;;
59193;SDS011;44967;48.598;15.650;2023-07-02T00:18:11;4.38;;;3.92;;
59193;SDS011;44967;48.598;15.650;2023-07-02T00:20:37;5.13;;;4.18;;
59193;SDS011;44967;48.598;15.650;2023-07-02T00:23:03;4.50;;;3.70;;
59193;SDS011;44967;48.598;15.650;2023-07-02T00:25:30;5.10;;;4.00;;
59193;SDS011;44967;48.598;15.650;2023-07-02T00:27:55;4.78;;;3.60;;
59193;SDS011;44967;48.598;15.650;2023-07-02T00:30:21;6.50;;;3.95;;
59193;SDS011;44967;48.598;15.650;2023-07-02T00:32:47;6.00;;;3.67;;
59193;SDS011;44967;48.598;15.650;2023-07-02T00:35:12;6.43;;;4.03;;
59193;SDS011;44967;48.598;15.650;2023-07-02T00:37:38;4.93;;;4.20;;
59193;SDS011;44967;48.598;15.650;2023-07-02T00:40:04;5.88;;;4.30;;
59193;SDS011;44967;48.598;15.650;2023-07-02T00:42:30;5.82;;;4.53;;
59193;SDS011;44967;48.598;15.650;2023-07-02T00:44:56;5.22;;;4.25;;
59193;SDS011;44967;48.598;15.650;2023-07-02T00:47:28;6.10;;;4.38;;
59193;SDS011;44967;48.598;15.650;2023-07-02T00:49:56;5.60;;;4.30;;
59193;SDS011;44967;48.598;15.650;2023-07-02T00:52:21;4.53;;;3.92;;
59193;SDS011;44967;48.598;15.650;2023-07-02T00:54:49;6.78;;;4.18;;
59193;SDS011;44967;48.598;15.650;2023-07-02T00:57:14;5.78;;;4.22;;
59193;SDS011;44967;48.598;15.650;2023-07-02T00:59:40;6.75;;;4.80;;
59193;SDS011;44967;48.598;15.650;2023-07-02T01:02:06;6.20;;;4.88;;
59193;SDS011;44967;48.598;15.650;2023-07-02T01:04:31;5.30;;;4.75;;
59193;SDS011;44967;48.598;15.650;2023-07-02T01:06:57;5.65;;;4.35;;
59193;SDS011;44967;48.598;15.650;2023-07-02T01:09:23;5.97;;;4.57;;
59193;SDS011;44967;48.598;15.650;2023-07-02T01:11:56;5.45;;;4.63;;
59193;SDS011;44967;48.598;15.650;2023-07-02T01:17:11;4.82;;;4.07;;
59193;SDS011;44967;48.598;15.650;2023-07-02T01:19:50;6.90;;;4.55;;
59193;SDS011;44967;48.598;15.650;2023-07-02T01:22:22;5.32;;;4.22;;
59193;SDS011;44967;48.598;15.650;2023-07-02T01:24:50;4.85;;;4.22;;
59193;SDS011;44967;48.598;15.650;2023-07-02T01:27:19;6.65;;;4.13;;
59193;SDS011;44967;48.598;15.650;2023-07-02T01:29:45;6.32;;;4.60;;
59193;SDS011;44967;48.598;15.650;2023-07-02T01:32:12;5.47;;;4.53;;
59193;SDS011;44967;48.598;15.650;2023-07-02T01:34:41;5.13;;;4.10;;
59193;SDS011;44967;48.598;15.650;2023-07-02T01:37:09;5.00;;;3.83;;
59193;SDS011;44967;48.598;15.650;2023-07-02T01:39:35;5.47;;;4.10;;
59193;SDS011;44967;48.598;15.650;2023-07-02T01:44:34;4.63;;;3.80;;
59193;SDS011;44967;48.598;15.650;2023-07-02T01:46:59;6.03;;;4.10;;
59193;SDS011;44967;48.598;15.650;2023-07-02T01:49:25;5.28;;;3.88;;
59193;SDS011;44967;48.598;15.650;2023-07-02T01:51:51;4.05;;;3.63;;
59193;SDS011;44967;48.598;15.650;2023-07-02T01:54:21;4.78;;;3.90;;
59193;SDS011;44967;48.598;15.650;2023-07-02T01:56:47;6.80;;;4.03;;
59193;SDS011;44967;48.598;15.650;2023-07-02T01:59:14;5.20;;;3.70;;
59193;SDS011;44967;48.598;15.650;2023-07-02T02:01:40;5.00;;;3.80;;
59193;SDS011;44967;48.598;15.650;2023-07-02T02:04:06;5.32;;;3.63;;
59193;SDS011;44967;48.598;15.650;2023-07-02T02:06:32;4.78;;;3.88;;
59193;SDS011;44967;48.598;15.650;2023-07-02T02:08:59;5.65;;;4.25;;
59193;SDS011;44967;48.598;15.650;2023-07-02T02:11:25;7.03;;;3.60;;
59193;SDS011;44967;48.598;15.650;2023-07-02T02:13:50;5.65;;;3.85;;
59193;SDS011;44967;48.598;15.650;2023-07-02T02:16:16;4.57;;;3.67;;
59193;SDS011;44967;48.598;15.650;2023-07-02T02:18:42;5.53;;;3.85;;
59193;SDS011;44967;48.598;15.650;2023-07-02T02:21:07;4.32;;;3.80;;
59193;SDS011;44967;48.598;15.650;2023-07-02T02:23:33;6.95;;;4.15;;
59193;SDS011;44967;48.598;15.650;2023-07-02T02:25:59;8.00;;;4.38;;
59193;SDS011;44967;48.598;15.650;2023-07-02T02:28:25;5.47;;;4.10;;
59193;SDS011;44967;48.598;15.650;2023-07-02T02:30:51;4.90;;;4.40;;
59193;SDS011;44967;48.598;15.650;2023-07-02T02:33:16;4.68;;;3.90;;
59193;SDS011;44967;48.598;15.650;2023-07-02T02:35:42;6.35;;;4.20;;
59193;SDS011;44967;48.598;15.650;2023-07-02T02:38:07;5.43;;;3.92;;
59193;SDS011;44967;48.598;15.650;2023-07-02T02:40:33;4.72;;;3.95;;
59193;SDS011;44967;48.598;15.650;2023-07-02T02:42:59;6.28;;;3.80;;
59193;SDS011;44967;48.598;15.650;2023-07-02T02:45:25;5.13;;;4.10;;
59193;SDS011;44967;48.598;15.650;2023-07-02T02:47:51;3.95;;;3.55;;
59193;SDS011;44967;48.598;15.650;2023-07-02T02:50:17;4.95;;;3.95;;
59193;SDS011;44967;48.598;15.650;2023-07-02T02:52:43;5.78;;;4.20;;
59193;SDS011;44967;48.598;15.650;2023-07-02T02:55:09;4.93;;;4.03;;
59193;SDS011;44967;48.598;15.650;2023-07-02T02:57:36;5.07;;;4.13;;
59193;SDS011;44967;48.598;15.650;2023-07-02T03:00:02;5.82;;;3.90;;
59193;SDS011;44967;48.598;15.650;2023-07-02T03:02:28;4.13;;;3.63;;
59193;SDS011;44967;48.598;15.650;2023-07-02T03:04:53;4.95;;;4.20;;
59193;SDS011;44967;48.598;15.650;2023-07-02T03:07:19;5.57;;;4.03;;
59193;SDS011;44967;48.598;15.650;2023-07-02T03:09:45;4.78;;;4.13;;
59193;SDS011;44967;48.598;15.650;2023-07-02T03:12:10;4.72;;;4.05;;
59193;SDS011;44967;48.598;15.650;2023-07-02T03:14:36;5.38;;;4.35;;
59193;SDS011;44967;48.598;15.650;2023-07-02T03:17:02;4.93;;;4.05;;
59193;SDS011;44967;48.598;15.650;2023-07-02T03:19:28;5.93;;;4.07;;
59193;SDS011;44967;48.598;15.650;2023-07-02T03:21:53;5.38;;;3.65;;
59193;SDS011;44967;48.598;15.650;2023-07-02T03:24:19;4.78;;;4.28;;
59193;SDS011;44967;48.598;15.650;2023-07-02T03:26:45;4.78;;;4.03;;
59193;SDS011;44967;48.598;15.650;2023-07-02T03:29:11;5.85;;;4.22;;
59193;SDS011;44967;48.598;15.650;2023-07-02T03:31:37;5.65;;;3.97;;
59193;SDS011;44967;48.598;15.650;2023-07-02T03:34:09;5.22;;;3.70;;
59193;SDS011;44967;48.598;15.650;2023-07-02T03:36:36;4.60;;;4.20;;
59193;SDS011;44967;48.598;15.650;2023-07-02T03:39:05;4.90;;;3.63;;
59193;SDS011;44967;48.598;15.650;2023-07-02T03:41:31;5.20;;;3.90;;
59193;SDS011;44967;48.598;15.650;2023-07-02T03:43:56;5.88;;;3.72;;
59193;SDS011;44967;48.598;15.650;2023-07-02T03:46:22;4.15;;;3.72;;
59193;SDS011;44967;48.598;15.650;2023-07-02T03:48:48;5.03;;;3.67;;
59193;SDS011;44967;48.598;15.650;2023-07-02T03:51:13;4.80;;;4.30;;
59193;SDS011;44967;48.598;15.650;2023-07-02T03:53:40;4.10;;;3.70;;
59193;SDS011;44967;48.598;15.650;2023-07-02T03:56:06;5.18;;;3.45;;
59193;SDS011;44967;48.598;15.650;2023-07-02T03:58:32;5.18;;;4.68;;
59193;SDS011;44967;48.598;15.650;2023-07-02T04:00:59;4.78;;;4.22;;
59193;SDS011;44967;48.598;15.650;2023-07-02T04:03:25;5.32;;;4.00;;
59193;SDS011;44967;48.598;15.650;2023-07-02T04:05:51;3.88;;;3.58;;
59193;SDS011;44967;48.598;15.650;2023-07-02T04:08:16;5.68;;;3.50;;
59193;SDS011;44967;48.598;15.650;2023-07-02T04:10:42;5.07;;;3.67;;
59193;SDS011;44967;48.598;15.650;2023-07-02T04:13:09;3.72;;;2.88;;
59193;SDS011;44967;48.598;15.650;2023-07-02T04:15:35;4.78;;;3.67;;
59193;SDS011;44967;48.598;15.650;2023-07-02T04:18:01;3.97;;;3.13;;
59193;SDS011;44967;48.598;15.650;2023-07-02T04:20:29;4.20;;;3.80;;
59193;SDS011;44967;48.598;15.650;2023-07-02T04:22:55;4.05;;;3.45;;
59193;SDS011;44967;48.598;15.650;2023-07-02T04:25:21;4.43;;;3.42;;
59193;SDS011;44967;48.598;15.650;2023-07-02T04:27:46;3.40;;;3.10;;
59193;SDS011;44967;48.598;15.650;2023-07-02T04:30:12;6.00;;;3.30;;
59193;SDS011;44967;48.598;15.650;2023-07-02T04:32:39;5.32;;;3.33;;
59193;SDS011;44967;48.598;15.650;2023-07-02T04:35:06;5.00;;;3.10;;
59193;SDS011;44967;48.598;15.650;2023-07-02T04:37:32;4.25;;;3.13;;
59193;SDS011;44967;48.598;15.650;2023-07-02T04:39:57;3.13;;;2.83;;
59193;SDS011;44967;48.598;15.650;2023-07-02T04:42:24;3.70;;;2.70;;
59193;SDS011;44967;48.598;15.650;2023-07-02T04:44:55;2.42;;;2.22;;
59193;SDS011;44967;48.598;15.650;2023-07-02T04:47:21;2.97;;;2.40;;
59193;SDS011;44967;48.598;15.650;2023-07-02T04:49:46;2.50;;;2.17;;
59193;SDS011;44967;48.598;15.650;2023-07-02T04:52:12;2.40;;;2.17;;
59193;SDS011;44967;48.598;15.650;2023-07-02T04:54:38;2.25;;;1.95;;
59193;SDS011;44967;48.598;15.650;2023-07-02T04:57:06;2.95;;;2.08;;
59193;SDS011;44967;48.598;15.650;2023-07-02T04:59:32;3.28;;;1.85;;
59193;SDS011;44967;48.598;15.650;2023-07-02T05:01:57;1.73;;;1.63;;
59193;SDS011;44967;48.598;15.650;2023-07-02T05:04:23;2.47;;;1.48;;
59193;SDS011;44967;48.598;15.650;2023-07-02T05:06:49;1.63;;;1.52;;
59193;SDS011;44967;48.598;15.650;2023-07-02T05:09:14;1.52;;;1.42;;
59193;SDS011;44967;48.598;15.650;2023-07-02T05:11:40;1.80;;;1.67;;
59193;SDS011;44967;48.598;15.650;2023-07-02T05:14:05;2.30;;;1.60;;
59193;SDS011;44967;48.598;15.650;2023-07-02T05:16:31;1.65;;;1.50;;
59193;SDS011;44967;48.598;15.650;2023-07-02T05:18:57;1.35;;;1.13;;
59193;SDS011;44967;48.598;15.650;2023-07-02T05:21:22;1.73;;;1.25;;
59193;SDS011;44967;48.598;15.650;2023-07-02T05:23:48;1.95;;;1.27;;
59193;SDS011;44967;48.598;15.650;2023-07-02T05:26:14;1.85;;;1.13;;
59193;SDS011;44967;48.598;15.650;2023-07-02T05:28:39;2.42;;;1.20;;
59193;SDS011;44967;48.598;15.650;2023-07-02T05:31:05;1.13;;;0.98;;
59193;SDS011;44967;48.598;15.650;2023-07-02T05:33:31;2.15;;;1.15;;
59193;SDS011;44967;48.598;15.650;2023-07-02T05:35:57;1.25;;;1.15;;
59193;SDS011;44967;48.598;15.650;2023-07-02T05:38:23;1.30;;;1.17;;
59193;SDS011;44967;48.598;15.650;2023-07-02T05:40:49;1.00;;;1.00;;
59193;SDS011;44967;48.598;15.650;2023-07-02T05:43:17;0.95;;;0.88;;
59193;SDS011;44967;48.598;15.650;2023-07-02T05:45:43;1.05;;;0.93;;
59193;SDS011;44967;48.598;15.650;2023-07-02T05:48:09;0.77;;;0.77;;
59193;SDS011;44967;48.598;15.650;2023-07-02T05:50:34;0.98;;;0.70;;
59193;SDS011;44967;48.598;15.650;2023-07-02T05:53:00;1.65;;;0.70;;
59193;SDS011;44967;48.598;15.650;2023-07-02T05:55:26;1.75;;;0.82;;
59193;SDS011;44967;48.598;15.650;2023-07-02T05:57:52;1.10;;;0.70;;
59193;SDS011;44967;48.598;15.650;2023-07-02T06:00:17;0.65;;;0.65;;
59193;SDS011;44967;48.598;15.650;2023-07-02T06:02:45;0.63;;;0.60;;
59193;SDS011;44967;48.598;15.650;2023-07-02T06:05:11;0.57;;;0.50;;
59193;SDS011;44967;48.598;15.650;2023-07-02T06:07:37;1.85;;;0.90;;
59193;SDS011;44967;48.598;15.650;2023-07-02T06:10:03;0.82;;;0.82;;
59193;SDS011;44967;48.598;15.650;2023-07-02T06:12:29;1.00;;;0.63;;
59193;SDS011;44967;48.598;15.650;2023-07-02T06:14:54;1.70;;;0.70;;
59193;SDS011;44967;48.598;15.650;2023-07-02T06:17:20;0.80;;;0.80;;
59193;SDS011;44967;48.598;15.650;2023-07-02T06:19:48;1.38;;;0.80;;
59193;SDS011;44967;48.598;15.650;2023-07-02T06:22:13;0.60;;;0.60;;
59193;SDS011;44967;48.598;15.650;2023-07-02T06:24:39;0.75;;;0.70;;
59193;SDS011;44967;48.598;15.650;2023-07-02T06:27:05;1.90;;;0.85;;
59193;SDS011;44967;48.598;15.650;2023-07-02T06:29:30;1.40;;;0.80;;
59193;SDS011;44967;48.598;15.650;2023-07-02T06:31:56;0.75;;;0.65;;
59193;SDS011;44967;48.598;15.650;2023-07-02T06:34:22;0.90;;;0.90;;
59193;SDS011;44967;48.598;15.650;2023-07-02T06:36:47;1.20;;;1.00;;
59193;SDS011;44967;48.598;15.650;2023-07-02T06:39:13;2.33;;;1.00;;
59193;SDS011;44967;48.598;15.650;2023-07-02T06:41:39;1.13;;;1.00;;
59193;SDS011;44967;48.598;15.650;2023-07-02T06:44:05;1.15;;;1.05;;
59193;SDS011;44967;48.598;15.650;2023-07-02T06:46:30;0.93;;;0.93;;
59193;SDS011;44967;48.598;15.650;2023-07-02T06:48:56;0.98;;;0.88;;
59193;SDS011;44967;48.598;15.650;2023-07-02T06:51:22;0.82;;;0.80;;
59193;SDS011;44967;48.598;15.650;2023-07-02T06:53:48;0.80;;;0.80;;
59193;SDS011;44967;48.598;15.650;2023-07-02T06:56:14;0.68;;;0.68;;
59193;SDS011;44967;48.598;15.650;2023-07-02T06:58:41;2.45;;;1.00;;
59193;SDS011;44967;48.598;15.650;2023-07-02T07:01:07;0.85;;;0.85;;
59193;SDS011;44967;48.598;15.650;2023-07-02T07:03:34;1.05;;;0.90;;
59193;SDS011;44967;48.598;15.650;2023-07-02T07:06:00;1.85;;;1.08;;
59193;SDS011;44967;48.598;15.650;2023-07-02T07:08:25;1.05;;;0.88;;
59193;SDS011;44967;48.598;15.650;2023-07-02T07:10:51;1.35;;;0.80;;
59193;SDS011;44967;48.598;15.650;2023-07-02T07:13:17;1.67;;;0.88;;
59193;SDS011;44967;48.598;15.650;2023-07-02T07:15:42;2.45;;;1.05;;
59193;SDS011;44967;48.598;15.650;2023-07-02T07:18:11;1.45;;;1.20;;
59193;SDS011;44967;48.598;15.650;2023-07-02T07:20:38;1.20;;;1.10;;
59193;SDS011;44967;48.598;15.650;2023-07-02T07:23:08;7.47;;;1.48;;
59193;SDS011;44967;48.598;15.650;2023-07-02T07:25:34;1.10;;;1.00;;
59193;SDS011;44967;48.598;15.650;2023-07-02T07:28:00;1.23;;;1.20;;
59193;SDS011;44967;48.598;15.650;2023-07-02T07:30:26;1.33;;;1.23;;
59193;SDS011;44967;48.598;15.650;2023-07-02T07:32:52;1.60;;;1.30;;
59193;SDS011;44967;48.598;15.650;2023-07-02T07:35:19;1.58;;;1.48;;
59193;SDS011;44967;48.598;15.650;2023-07-02T07:37:46;2.65;;;1.10;;
59193;SDS011;44967;48.598;15.650;2023-07-02T07:40:13;1.80;;;1.38;;
59193;SDS011;44967;48.598;15.650;2023-07-02T07:42:40;1.73;;;1.23;;
59193;SDS011;44967;48.598;15.650;2023-07-02T07:45:08;1.60;;;1.50;;
59193;SDS011;44967;48.598;15.650;2023-07-02T07:47:35;1.77;;;1.60;;
59193;SDS011;44967;48.598;15.650;2023-07-02T07:50:00;2.15;;;1.50;;
59193;SDS011;44967;48.598;15.650;2023-07-02T07:52:26;1.42;;;1.33;;
59193;SDS011;44967;48.598;15.650;2023-07-02T07:54:52;1.33;;;1.23;;
59193;SDS011;44967;48.598;15.650;2023-07-02T07:57:18;1.48;;;1.38;;
59193;SDS011;44967;48.598;15.650;2023-07-02T07:59:44;3.67;;;1.45;;
59193;SDS011;44967;48.598;15.650;2023-07-02T08:02:09;2.00;;;1.55;;
59193;SDS011;44967;48.598;15.650;2023-07-02T08:04:35;2.72;;;1.38;;
59193;SDS011;44967;48.598;15.650;2023-07-02T08:07:01;1.83;;;1.52;;
59193;SDS011;44967;48.598;15.650;2023-07-02T08:09:30;1.98;;;1.30;;
59193;SDS011;44967;48.598;15.650;2023-07-02T08:11:55;2.25;;;1.40;;
59193;SDS011;44967;48.598;15.650;2023-07-02T08:14:21;2.85;;;1.50;;
59193;SDS011;44967;48.598;15.650;2023-07-02T08:16:46;1.35;;;1.25;;
59193;SDS011;44967;48.598;15.650;2023-07-02T08:19:13;2.55;;;1.50;;
59193;SDS011;44967;48.598;15.650;2023-07-02T08:21:38;3.88;;;1.80;;
59193;SDS011;44967;48.598;15.650;2023-07-02T08:24:04;1.92;;;1.70;;
59193;SDS011;44967;48.598;15.650;2023-07-02T08:26:31;1.60;;;1.50;;
59193;SDS011;44967;48.598;15.650;2023-07-02T08:28:56;1.70;;;1.60;;
59193;SDS011;44967;48.598;15.650;2023-07-02T08:31:22;1.95;;;1.77;;
59193;SDS011;44967;48.598;15.650;2023-07-02T08:33:47;2.58;;;1.60;;
59193;SDS011;44967;48.598;15.650;2023-07-02T08:36:13;3.40;;;1.83;;
59193;SDS011;44967;48.598;15.650;2023-07-02T08:38:39;2.40;;;2.00;;
59193;SDS011;44967;48.598;15.650;2023-07-02T08:41:07;2.08;;;1.85;;
59193;SDS011;44967;48.598;15.650;2023-07-02T08:43:33;1.85;;;1.65;;
59193;SDS011;44967;48.598;15.650;2023-07-02T08:46:00;1.88;;;1.60;;
59193;SDS011;44967;48.598;15.650;2023-07-02T08:48:26;4.15;;;1.67;;
59193;SDS011;44967;48.598;15.650;2023-07-02T08:50:54;2.10;;;1.90;;
59193;SDS011;44967;48.598;15.650;2023-07-02T08:53:20;2.53;;;1.75;;
59193;SDS011;44967;48.598;15.650;2023-07-02T08:55:50;2.65;;;1.63;;
59193;SDS011;44967;48.598;15.650;2023-07-02T08:58:16;1.52;;;1.42;;
59193;SDS011;44967;48.598;15.650;2023-07-02T09:01:03;2.08;;;1.65;;
59193;SDS011;44967;48.598;15.650;2023-07-02T09:03:33;1.70;;;1.60;;
59193;SDS011;44967;48.598;15.650;2023-07-02T09:05:59;1.65;;;1.55;;
59193;SDS011;44967;48.598;15.650;2023-07-02T09:08:28;4.15;;;1.98;;
59193;SDS011;44967;48.598;15.650;2023-07-02T09:10:54;2.47;;;1.48;;
59193;SDS011;44967;48.598;15.650;2023-07-02T09:13:31;1.73;;;1.63;;
59193;SDS011;44967;48.598;15.650;2023-07-02T09:15:56;2.83;;;2.00;;
59193;SDS011;44967;48.598;15.650;2023-07-02T09:18:22;4.28;;;1.95;;
59193;SDS011;44967;48.598;15.650;2023-07-02T09:20:52;2.58;;;1.70;;
59193;SDS011;44967;48.598;15.650;2023-07-02T09:23:20;2.22;;;1.83;;
59193;SDS011;44967;48.598;15.650;2023-07-02T09:25:46;1.67;;;1.42;;
59193;SDS011;44967;48.598;15.650;2023-07-02T09:30:56;4.20;;;1.73;;
59193;SDS011;44967;48.598;15.650;2023-07-02T09:33:23;1.52;;;1.42;;
59193;SDS011;44967;48.598;15.650;2023-07-02T09:35:51;3.20;;;1.65;;
59193;SDS011;44967;48.598;15.650;2023-07-02T09:38:20;2.45;;;2.00;;
59193;SDS011;44967;48.598;15.650;2023-07-02T09:40:48;1.60;;;1.50;;
59193;SDS011;44967;48.598;15.650;2023-07-02T09:43:15;1.80;;;1.70;;
59193;SDS011;44967;48.598;15.650;2023-07-02T09:45:46;3.97;;;1.67;;
59193;SDS011;44967;48.598;15.650;2023-07-02T09:48:13;2.40;;;1.70;;
59193;SDS011;44967;48.598;15.650;2023-07-02T09:50:46;1.70;;;1.55;;
59193;SDS011;44967;48.598;15.650;2023-07-02T09:53:13;2.30;;;1.95;;
59193;SDS011;44967;48.598;15.650;2023-07-02T09:55:41;1.63;;;1.52;;
59193;SDS011;44967;48.598;15.650;2023-07-02T09:58:07;1.70;;;1.52;;
59193;SDS011;44967;48.598;15.650;2023-07-02T10:00:34;2.60;;;1.80;;
59193;SDS011;44967;48.598;15.650;2023-07-02T10:03:02;2.08;;;1.70;;
59193;SDS011;44967;48.598;15.650;2023-07-02T10:05:30;3.28;;;1.65;;
59193;SDS011;44967;48.598;15.650;2023-07-02T10:07:58;2.33;;;1.70;;
59193;SDS011;44967;48.598;15.650;2023-07-02T10:10:42;2.25;;;1.73;;
59193;SDS011;44967;48.598;15.650;2023-07-02T10:13:07;2.42;;;1.52;;
59193;SDS011;44967;48.598;15.650;2023-07-02T10:15:37;1.75;;;1.65;;
59193;SDS011;44967;48.598;15.650;2023-07-02T10:18:04;1.98;;;1.80;;
59193;SDS011;44967;48.598;15.650;2023-07-02T10:20:40;3.40;;;1.50;;
59193;SDS011;44967;48.598;15.650;2023-07-02T10:23:07;1.85;;;1.40;;
59193;SDS011;44967;48.598;15.650;2023-07-02T10:25:37;1.95;;;1.58;;
59193;SDS011;44967;48.598;15.650;2023-07-02T10:28:13;2.08;;;1.73;;
59193;SDS011;44967;48.598;15.650;2023-07-02T10:30:40;2.00;;;1.70;;
59193;SDS011;44967;48.598;15.650;2023-07-02T10:33:09;1.65;;;1.55;;
59193;SDS011;44967;48.598;15.650;2023-07-02T10:35:40;2.60;;;1.80;;
59193;SDS011;44967;48.598;15.650;2023-07-02T10:38:13;4.07;;;1.67;;
59193;SDS011;44967;48.598;15.650;2023-07-02T10:40:41;2.15;;;1.60;;
59193;SDS011;44967;48.598;15.650;2023-07-02T10:43:08;1.70;;;1.60;;
59193;SDS011;44967;48.598;15.650;2023-07-02T10:45:34;2.58;;;1.25;;
59193;SDS011;44967;48.598;15.650;2023-07-02T10:48:08;2.33;;;1.23;;
59193;SDS011;44967;48.598;15.650;2023-07-02T10:50:34;2.42;;;1.60;;
59193;SDS011;44967;48.598;15.650;2023-07-02T10:53:00;2.05;;;1.55;;
59193;SDS011;44967;48.598;15.650;2023-07-02T10:55:26;1.38;;;1.25;;
59193;SDS011;44967;48.598;15.650;2023-07-02T10:58:06;1.30;;;1.20;;
59193;SDS011;44967;48.598;15.650;2023-07-02T11:00:42;1.42;;;1.33;;
59193;SDS011;44967;48.598;15.650;2023-07-02T11:03:21;1.88;;;1.45;;
59193;SDS011;44967;48.598;15.650;2023-07-02T11:05:48;1.95;;;1.67;;
59193;SDS011;44967;48.598;15.650;2023-07-02T11:08:15;4.57;;;1.73;;
59193;SDS011;44967;48.598;15.650;2023-07-02T11:10:41;2.10;;;1.45;;
59193;SDS011;44967;48.598;15.650;2023-07-02T11:13:13;3.20;;;1.60;;
59193;SDS011;44967;48.598;15.650;2023-07-02T11:15:43;1.50;;;1.40;;
59193;SDS011;44967;48.598;15.650;2023-07-02T11:18:13;1.75;;;1.55;;
59193;SDS011;44967;48.598;15.650;2023-07-02T11:20:40;2.03;;;1.40;;
59193;SDS011;44967;48.598;15.650;2023-07-02T11:23:19;2.08;;;1.33;;
59193;SDS011;44967;48.598;15.650;2023-07-02T11:25:56;1.48;;;1.27;;
59193;SDS011;44967;48.598;15.650;2023-07-02T11:28:26;2.75;;;1.08;;
59193;SDS011;44967;48.598;15.650;2023-07-02T11:30:53;1.08;;;1.02;;
59193;SDS011;44967;48.598;15.650;2023-07-02T11:33:38;1.90;;;1.35;;
59193;SDS011;44967;48.598;15.650;2023-07-02T11:36:06;2.95;;;1.20;;
59193;SDS011;44967;48.598;15.650;2023-07-02T11:38:33;1.13;;;1.02;;
59193;SDS011;44967;48.598;15.650;2023-07-02T11:41:02;1.35;;;1.23;;
59193;SDS011;44967;48.598;15.650;2023-07-02T11:43:28;0.90;;;0.90;;
59193;SDS011;44967;48.598;15.650;2023-07-02T11:45:54;1.98;;;1.05;;
59193;SDS011;44967;48.598;15.650;2023-07-02T11:48:20;1.23;;;1.13;;
59193;SDS011;44967;48.598;15.650;2023-07-02T11:50:46;2.80;;;1.38;;
59193;SDS011;44967;48.598;15.650;2023-07-02T11:53:12;1.92;;;1.00;;
59193;SDS011;44967;48.598;15.650;2023-07-02T11:55:37;1.58;;;1.30;;
59193;SDS011;44967;48.598;15.650;2023-07-02T11:58:03;2.00;;;1.25;;
59193;SDS011;44967;48.598;15.650;2023-07-02T12:00:29;1.10;;;1.10;;
59193;SDS011;44967;48.598;15.650;2023-07-02T12:02:55;1.25;;;1.15;;
59193;SDS011;44967;48.598;15.650;2023-07-02T12:05:20;1.10;;;0.88;;
59193;SDS011;44967;48.598;15.650;2023-07-02T12:07:46;1.42;;;1.08;;
59193;SDS011;44967;48.598;15.650;2023-07-02T12:10:12;1.25;;;1.15;;
59193;SDS011;44967;48.598;15.650;2023-07-02T12:12:38;2.70;;;1.50;;
59193;SDS011;44967;48.598;15.650;2023-07-02T12:15:03;2.47;;;1.10;;
59193;SDS011;44967;48.598;15.650;2023-07-02T12:17:29;1.48;;;1.10;;
59193;SDS011;44967;48.598;15.650;2023-07-02T12:19:56;1.42;;;1.33;;
59193;SDS011;44967;48.598;15.650;2023-07-02T12:22:22;2.88;;;2.20;;
59193;SDS011;44967;48.598;15.650;2023-07-02T12:24:48;4.43;;;1.40;;
59193;SDS011;44967;48.598;15.650;2023-07-02T12:27:15;1.23;;;0.98;;
59193;SDS011;44967;48.598;15.650;2023-07-02T12:29:41;2.70;;;1.27;;
59193;SDS011;44967;48.598;15.650;2023-07-02T12:32:06;1.67;;;0.98;;
59193;SDS011;44967;48.598;15.650;2023-07-02T12:34:32;1.08;;;0.98;;
59193;SDS011;44967;48.598;15.650;2023-07-02T12:36:58;2.70;;;1.38;;
59193;SDS011;44967;48.598;15.650;2023-07-02T12:39:23;1.20;;;1.02;;
59193;SDS011;44967;48.598;15.650;2023-07-02T12:41:49;1.17;;;1.02;;
59193;SDS011;44967;48.598;15.650;2023-07-02T12:44:15;1.60;;;0.80;;
59193;SDS011;44967;48.598;15.650;2023-07-02T12:46:41;1.77;;;0.90;;
59193;SDS011;44967;48.598;15.650;2023-07-02T12:49:07;1.60;;;1.27;;
59193;SDS011;44967;48.598;15.650;2023-07-02T12:51:32;1.00;;;1.00;;
59193;SDS011;44967;48.598;15.650;2023-07-02T12:53:58;1.20;;;0.90;;
59193;SDS011;44967;48.598;15.650;2023-07-02T12:56:24;1.85;;;1.02;;
59193;SDS011;44967;48.598;15.650;2023-07-02T12:58:49;1.17;;;0.98;;
59193;SDS011;44967;48.598;15.650;2023-07-02T13:01:16;2.83;;;1.40;;
59193;SDS011;44967;48.598;15.650;2023-07-02T13:03:46;1.50;;;1.38;;
59193;SDS011;44967;48.598;15.650;2023-07-02T13:06:13;1.23;;;1.08;;
59193;SDS011;44967;48.598;15.650;2023-07-02T13:08:39;0.85;;;0.85;;
59193;SDS011;44967;48.598;15.650;2023-07-02T13:11:05;1.42;;;1.20;;
59193;SDS011;44967;48.598;15.650;2023-07-02T13:13:33;1.40;;;1.30;;
59193;SDS011;44967;48.598;15.650;2023-07-02T13:16:01;1.25;;;0.80;;
59193;SDS011;44967;48.598;15.650;2023-07-02T13:18:28;1.13;;;1.02;;
59193;SDS011;44967;48.598;15.650;2023-07-02T13:20:55;2.05;;;1.20;;
59193;SDS011;44967;48.598;15.650;2023-07-02T13:23:21;1.45;;;1.35;;
59193;SDS011;44967;48.598;15.650;2023-07-02T13:25:47;2.28;;;1.60;;
59193;SDS011;44967;48.598;15.650;2023-07-02T13:28:13;2.33;;;1.67;;
59193;SDS011;44967;48.598;15.650;2023-07-02T13:30:40;3.17;;;1.80;;
59193;SDS011;44967;48.598;15.650;2023-07-02T13:33:06;3.72;;;1.77;;
59193;SDS011;44967;48.598;15.650;2023-07-02T13:35:32;4.20;;;1.80;;
59193;SDS011;44967;48.598;15.650;2023-07-02T13:37:58;2.75;;;1.80;;
59193;SDS011;44967;48.598;15.650;2023-07-02T13:40:30;2.80;;;1.70;;
59193;SDS011;44967;48.598;15.650;2023-07-02T13:42:56;2.45;;;1.80;;
59193;SDS011;44967;48.598;15.650;2023-07-02T13:45:22;2.38;;;1.80;;
59193;SDS011;44967;48.598;15.650;2023-07-02T13:47:48;2.13;;;1.70;;
59193;SDS011;44967;48.598;15.650;2023-07-02T13:50:14;4.22;;;2.65;;
59193;SDS011;44967;48.598;15.650;2023-07-02T13:52:40;3.45;;;2.20;;
59193;SDS011;44967;48.598;15.650;2023-07-02T13:55:06;3.55;;;2.22;;
59193;SDS011;44967;48.598;15.650;2023-07-02T13:57:32;3.03;;;2.42;;
59193;SDS011;44967;48.598;15.650;2023-07-02T13:59:58;3.28;;;2.38;;
59193;SDS011;44967;48.598;15.650;2023-07-02T14:02:24;3.78;;;2.65;;
59193;SDS011;44967;48.598;15.650;2023-07-02T14:04:50;3.97;;;2.30;;
59193;SDS011;44967;48.598;15.650;2023-07-02T14:07:15;3.80;;;3.15;;
59193;SDS011;44967;48.598;15.650;2023-07-02T14:09:42;4.45;;;3.10;;
59193;SDS011;44967;48.598;15.650;2023-07-02T14:12:08;6.32;;;3.30;;
59193;SDS011;44967;48.598;15.650;2023-07-02T14:14:37;3.53;;;3.03;;
59193;SDS011;44967;48.598;15.650;2023-07-02T14:17:03;4.85;;;3.22;;
59193;SDS011;44967;48.598;15.650;2023-07-02T14:19:29;5.25;;;2.72;;
59193;SDS011;44967;48.598;15.650;2023-07-02T14:21:55;4.45;;;2.80;;
59193;SDS011;44967;48.598;15.650;2023-07-02T14:24:21;5.43;;;2.63;;
59193;SDS011;44967;48.598;15.650;2023-07-02T14:26:47;3.85;;;3.00;;
59193;SDS011;44967;48.598;15.650;2023-07-02T14:29:13;4.95;;;3.40;;
59193;SDS011;44967;48.598;15.650;2023-07-02T14:31:39;7.55;;;3.65;;
59193;SDS011;44967;48.598;15.650;2023-07-02T14:34:05;3.22;;;2.90;;
59193;SDS011;44967;48.598;15.650;2023-07-02T14:36:31;3.80;;;3.00;;
59193;SDS011;44967;48.598;15.650;2023-07-02T14:38:57;4.35;;;3.08;;